Time;durP1;ratioP1;P1;durP2;ratioP2;P2;SDS_P1;SDS_P2;PMS_P1;PMS_P2;Temp;Humidity;BMP_temperature;BMP_pressure;BME280_temperature;BME280_humidity;BME280_pressure;Samples;Min_cycle;Max_cycle;Signal;HPM_P1;HPM_P2
2022/08/23 00:01:56;;;;;;;;;;;;;;;20.37;91.26;100414.28;1763172;80;26451;-74
2022/08/23 00:04:27;;;;;;;17.80;9.65;;;;;;;20.34;91.58;100407.98;1786049;79;25777;-74
2022/08/23 00:06:55;;;;;;;18.70;10.28;;;;;;;20.31;91.60;100419.91;1769985;79;25732;-74
2022/08/23 00:09:24;;;;;;;20.82;10.80;;;;;;;20.30;91.63;100416.90;1786854;80;27072;-74
2022/08/23 00:11:56;;;;;;;20.95;10.30;;;;;;;20.29;91.75;100420.18;1777479;80;25825;-74
2022/08/23 00:14:28;;;;;;;18.05;10.32;;;;;;;20.26;91.80;100423.39;1768907;80;26463;-75
2022/08/23 00:16:56;;;;;;;20.25;10.28;;;;;;;20.23;92.04;100421.73;1742251;81;26599;-74
2022/08/23 00:19:23;;;;;;;20.12;10.20;;;;;;;20.21;92.15;100421.16;1747730;81;25851;-74
2022/08/23 00:21:53;;;;;;;18.00;11.15;;;;;;;20.19;92.28;100430.09;1773796;80;27452;-75
2022/08/23 00:24:21;;;;;;;21.95;11.20;;;;;;;20.20;92.36;100433.94;1764017;81;25746;-73
2022/08/23 00:27:08;;;;;;;16.93;10.58;;;;;;;20.21;92.43;100440.20;1765887;79;25760;-74
2022/08/23 00:29:51;;;;;;;21.00;10.82;;;;;;;20.24;92.41;100438.31;1764378;79;25788;-74
2022/08/23 00:32:22;;;;;;;19.17;9.88;;;;;;;20.24;92.45;100430.98;1768724;79;26708;-74
2022/08/23 00:34:49;;;;;;;16.07;10.75;;;;;;;20.24;92.52;100425.55;1777949;79;27447;-74
2022/08/23 00:37:16;;;;;;;19.85;11.70;;;;;;;20.23;92.59;100425.81;1778918;79;25897;-74
2022/08/23 00:39:43;;;;;;;18.37;11.00;;;;;;;20.19;92.70;100428.16;1766960;79;25904;-74
2022/08/23 00:47:49;;;;;;;19.35;10.45;;;;;;;20.18;92.91;100432.51;1774851;79;27328;-74
2022/08/23 00:50:40;;;;;;;17.42;10.95;;;;;;;20.16;93.03;100431.41;1767294;79;25778;-74
2022/08/23 00:53:26;;;;;;;23.75;11.00;;;;;;;20.18;93.05;100431.14;1767779;79;25291;-74
2022/08/23 00:55:59;;;;;;;16.02;10.88;;;;;;;20.17;93.12;100438.47;1776703;80;25928;-74
2022/08/23 00:58:26;;;;;;;17.15;11.43;;;;;;;20.19;93.06;100442.33;1774446;80;26034;-74
2022/08/23 01:00:56;;;;;;;23.10;11.12;;;;;;;20.20;93.16;100438.52;1752311;80;27460;-74
2022/08/23 01:03:25;;;;;;;18.60;11.93;;;;;;;20.20;92.95;100446.17;1775877;80;26509;-74
2022/08/23 01:05:57;;;;;;;20.77;11.00;;;;;;;20.23;92.86;100450.29;1751545;80;25256;-73
2022/08/23 01:08:26;;;;;;;17.67;10.15;;;;;;;20.25;92.84;100449.50;1783851;80;25787;-74
2022/08/23 01:11:16;;;;;;;20.08;10.75;;;;;;;20.26;92.75;100456.56;1783483;79;25877;-74
2022/08/23 01:13:48;;;;;;;17.70;10.23;;;;;;;20.29;92.68;100461.52;1774363;80;27460;-74
2022/08/23 01:16:32;;;;;;;19.90;11.40;;;;;;;20.30;92.54;100465.33;1748426;80;25794;-74
2022/08/23 01:18:58;;;;;;;23.85;11.45;;;;;;;20.33;92.24;100468.09;1778990;79;25843;-74
2022/08/23 01:21:33;;;;;;;19.57;11.30;;;;;;;20.33;91.91;100468.92;1783000;80;25832;-74
2022/08/23 01:24:02;;;;;;;26.62;11.20;;;;;;;20.34;91.68;100466.47;1750488;80;25902;-73
2022/08/23 01:26:33;;;;;;;17.27;10.88;;;;;;;20.35;91.36;100464.58;1770387;80;28291;-74
2022/08/23 01:28:59;;;;;;;19.73;12.35;;;;;;;20.34;91.20;100457.47;1778925;80;25770;-74
2022/08/23 01:31:27;;;;;;;16.70;11.40;;;;;;;20.32;91.12;100465.90;1789788;79;26425;-74
2022/08/23 01:34:02;;;;;;;14.38;10.10;;;;;;;20.32;91.03;100463.70;1789785;80;25783;-74
2022/08/23 01:36:29;;;;;;;19.80;11.55;;;;;;;20.31;90.83;100458.83;1775857;80;25715;-74
2022/08/23 01:38:56;;;;;;;17.00;10.28;;;;;;;20.32;90.70;100468.62;1771128;79;27453;-74
2022/08/23 01:41:23;;;;;;;19.32;10.93;;;;;;;20.32;90.55;100469.15;1774805;79;25731;-73
2022/08/23 01:43:50;;;;;;;18.73;10.68;;;;;;;20.34;90.55;100471.08;1768552;80;25858;-74
2022/08/23 01:46:22;;;;;;;16.45;11.00;;;;;;;20.34;90.37;100469.72;1774306;79;25792;-73
2022/08/23 01:48:50;;;;;;;14.40;9.90;;;;;;;20.34;90.29;100472.44;1769012;79;25794;-74
2022/08/23 01:51:19;;;;;;;17.25;9.85;;;;;;;20.33;90.22;100475.72;1773979;79;27588;-74
2022/08/23 01:53:46;;;;;;;18.00;10.32;;;;;;;20.31;90.13;100479.77;1775991;79;26411;-74
2022/08/23 01:56:14;;;;;;;16.07;11.12;;;;;;;20.29;90.00;100473.22;1781733;79;26162;-74
2022/08/23 01:58:41;;;;;;;18.80;11.48;;;;;;;20.28;90.08;100479.73;1778697;79;25779;-74
2022/08/23 02:01:08;;;;;;;16.35;10.82;;;;;;;20.26;90.17;100472.36;1776459;79;26191;-73
2022/08/23 02:03:36;;;;;;;23.18;11.10;;;;;;;20.26;90.32;100477.80;1771655;79;27453;-73
2022/08/23 02:06:04;;;;;;;17.67;10.95;;;;;;;20.23;90.69;100466.05;1771488;79;25817;-74
2022/08/23 02:11:21;;;;;;;15.48;11.60;;;;;;;20.17;91.05;100467.03;1776626;79;27524;-74
2022/08/23 02:13:51;;;;;;;17.45;10.40;;;;;;;20.13;91.40;100467.78;1763523;80;25892;-74
2022/08/23 02:16:25;;;;;;;20.62;10.65;;;;;;;20.09;91.51;100463.93;1782115;80;27402;-74
2022/08/23 02:18:54;;;;;;;19.87;11.28;;;;;;;20.08;91.56;100474.53;1783544;80;25741;-74
2022/08/23 02:21:22;;;;;;;14.73;9.70;;;;;;;20.07;91.62;100480.51;1776738;80;25825;-74
2022/08/23 02:23:50;;;;;;;17.20;10.93;;;;;;;20.10;91.69;100489.53;1745045;81;26558;-74
2022/08/23 02:26:18;;;;;;;12.00;10.68;;;;;;;20.11;91.67;100484.36;1766723;79;25849;-73
2022/08/23 02:28:45;;;;;;;20.55;10.63;;;;;;;20.12;91.61;100482.47;1747209;81;27456;-74
2022/08/23 02:31:12;;;;;;;15.32;10.38;;;;;;;20.09;91.55;100477.53;1775770;80;25841;-74
2022/08/23 02:33:38;;;;;;;19.77;10.95;;;;;;;20.02;91.56;100468.19;1757138;80;25784;-74
2022/08/23 02:36:05;;;;;;;23.15;11.15;;;;;;;19.97;91.73;100468.94;1792548;79;26428;-75
2022/08/23 02:38:32;;;;;;;22.32;10.93;;;;;;;19.91;92.10;100464.52;1771708;79;25912;-74
2022/08/23 02:41:00;;;;;;;17.95;11.80;;;;;;;19.87;92.51;100466.09;1726967;81;28300;-73
2022/08/23 02:43:26;;;;;;;16.45;11.10;;;;;;;19.81;92.93;100452.67;1754002;81;25927;-74
2022/08/23 02:45:53;;;;;;;17.50;12.03;;;;;;;19.74;93.36;100445.23;1761930;79;26494;-73
2022/08/23 02:48:19;;;;;;;16.42;12.55;;;;;;;19.71;93.83;100443.86;1758748;80;25777;-74
2022/08/23 02:50:48;;;;;;;16.87;11.40;;;;;;;19.70;94.23;100450.35;1768075;79;25968;-73
2022/08/23 02:53:16;;;;;;;35.80;12.80;;;;;;;19.70;94.66;100448.99;1767085;81;28661;-74
2022/08/23 02:55:48;;;;;;;21.45;11.55;;;;;;;19.71;94.89;100452.02;1786369;80;25845;-74
2022/08/23 02:58:14;;;;;;;24.65;13.85;;;;;;;19.74;95.10;100463.72;1773682;80;25775;-73
2022/08/23 03:00:46;;;;;;;22.73;14.70;;;;;;;19.78;95.61;100477.09;1764959;78;25707;-74
2022/08/23 03:03:12;;;;;;;21.80;14.40;;;;;;;19.80;95.89;100470.08;1771291;80;25819;-74
2022/08/23 03:05:39;;;;;;;21.57;13.15;;;;;;;19.82;96.14;100472.80;1775413;80;27429;-73
2022/08/23 03:08:07;;;;;;;21.20;12.05;;;;;;;19.84;96.24;100455.73;1765862;81;25782;-74
2022/08/23 03:10:35;;;;;;;21.93;12.40;;;;;;;19.80;96.18;100436.89;1762871;81;25881;-74
2022/08/23 03:13:01;;;;;;;20.48;12.98;;;;;;;19.70;96.15;100431.86;1763228;80;25800;-74
2022/08/23 03:15:28;;;;;;;22.65;13.40;;;;;;;19.63;96.69;100436.11;1763404;80;26448;-74
2022/08/23 03:17:55;;;;;;;23.67;13.08;;;;;;;19.63;97.08;100442.10;1763650;79;27466;-74
2022/08/23 03:20:21;;;;;;;24.20;13.13;;;;;;;19.66;97.18;100447.85;1766168;79;25823;-74
2022/08/23 03:22:47;;;;;;;21.52;12.95;;;;;;;19.71;97.26;100446.58;1764720;81;26234;-74
2022/08/23 03:25:14;;;;;;;23.87;14.00;;;;;;;19.74;97.29;100446.06;1761943;81;25767;-74
2022/08/23 03:27:42;;;;;;;18.50;13.38;;;;;;;19.76;97.38;100447.98;1757556;81;25718;-74
2022/08/23 03:30:09;;;;;;;20.72;13.03;;;;;;;19.76;97.55;100443.91;1758243;81;27462;-74
2022/08/23 03:32:36;;;;;;;25.60;13.83;;;;;;;19.74;97.52;100440.63;1764794;81;25735;-74
2022/08/23 03:35:05;;;;;;;26.25;13.70;;;;;;;19.72;97.86;100446.02;1760708;81;26455;-74
2022/08/23 03:37:32;;;;;;;26.17;14.87;;;;;;;19.71;98.03;100445.22;1763610;81;26468;-74
2022/08/23 03:39:58;;;;;;;27.58;14.68;;;;;;;19.70;98.11;100444.92;1755913;81;25974;-74
2022/08/23 03:42:25;;;;;;;19.98;13.25;;;;;;;19.69;98.11;100447.36;1759887;81;27454;-74
2022/08/23 03:44:51;;;;;;;23.30;13.22;;;;;;;19.69;98.30;100446.00;1758489;81;25854;-74
2022/08/23 03:47:18;;;;;;;21.40;14.13;;;;;;;19.70;98.30;100436.77;1763596;81;25755;-74
2022/08/23 03:49:45;;;;;;;18.45;12.58;;;;;;;19.74;98.18;100438.44;1761812;79;25851;-74
2022/08/23 03:52:12;;;;;;;26.65;13.53;;;;;;;19.79;98.12;100429.00;1780066;79;25852;-74
2022/08/23 03:54:38;;;;;;;28.32;13.90;;;;;;;19.83;97.96;100435.05;1747332;80;27464;-73
2022/08/23 03:57:08;;;;;;;24.47;13.03;;;;;;;19.88;97.64;100427.50;1778658;79;25754;-74
2022/08/23 03:59:39;;;;;;;24.98;13.58;;;;;;;19.91;97.65;100425.62;1751828;80;25741;-74
2022/08/23 04:02:08;;;;;;;22.07;13.32;;;;;;;19.94;97.50;100423.77;1761961;80;25852;-73
2022/08/23 04:04:34;;;;;;;22.95;14.05;;;;;;;19.96;97.30;100416.19;1764363;80;25288;-74
2022/08/23 04:07:21;;;;;;;21.52;13.38;;;;;;;19.97;97.34;100417.28;1761850;79;27480;-74
2022/08/23 04:09:49;;;;;;;24.90;13.72;;;;;;;20.00;97.13;100429.02;1764187;80;26120;-74
2022/08/23 04:12:17;;;;;;;23.57;14.43;;;;;;;20.04;97.03;100432.61;1764595;80;26176;-74
2022/08/23 04:14:45;;;;;;;22.93;13.78;;;;;;;20.06;96.91;100430.46;1770820;80;25796;-74
2022/08/23 04:17:14;;;;;;;26.45;15.23;;;;;;;20.08;96.67;100431.03;1750275;80;26554;-74
2022/08/23 04:19:41;;;;;;;20.97;13.83;;;;;;;20.10;96.58;100432.42;1772890;79;27942;-74
2022/08/23 04:22:14;;;;;;;21.10;13.62;;;;;;;20.12;96.58;100438.44;1779334;79;26012;-74
2022/08/23 04:24:42;;;;;;;22.40;14.95;;;;;;;20.13;96.37;100441.95;1784384;79;25786;-73
2022/08/23 04:27:09;;;;;;;22.58;13.20;;;;;;;20.13;96.19;100443.31;1772894;79;26570;-74
2022/08/23 04:29:37;;;;;;;18.30;12.85;;;;;;;20.14;96.12;100447.16;1743317;81;26376;-74
2022/08/23 04:32:06;;;;;;;19.00;12.82;;;;;;;20.14;96.06;100449.05;1756019;80;27436;-74
2022/08/23 04:34:34;;;;;;;19.48;13.70;;;;;;;20.13;96.06;100455.02;1751697;80;25803;-74
2022/08/23 04:37:01;;;;;;;21.42;13.55;;;;;;;20.16;96.03;100457.78;1753805;80;25878;-74
2022/08/23 04:39:28;;;;;;;20.23;12.90;;;;;;;20.16;95.99;100457.25;1749436;80;26303;-74
2022/08/23 04:44:41;;;;;;;19.77;13.93;;;;;;;20.11;96.15;100463.97;1743349;80;27534;-74
2022/08/23 04:47:07;;;;;;;20.17;13.72;;;;;;;20.12;96.22;100460.72;1720007;80;26460;-74
2022/08/23 04:49:34;;;;;;;17.62;12.82;;;;;;;20.11;96.40;100463.97;1744978;80;25738;-74
2022/08/23 04:52:01;;;;;;;20.97;13.58;;;;;;;20.08;96.32;100459.02;1742249;80;26477;-74
2022/08/23 04:54:29;;;;;;;20.50;13.25;;;;;;;20.08;96.56;100466.38;1723562;80;25920;-74
2022/08/23 04:57:01;;;;;;;21.57;13.62;;;;;;;20.10;96.87;100471.03;1745361;80;27499;-74
2022/08/23 04:59:27;;;;;;;33.23;14.40;;;;;;;20.14;97.03;100474.36;1740589;80;26467;-74
2022/08/23 05:01:54;;;;;;;22.98;14.83;;;;;;;20.18;97.25;100475.49;1752437;80;26348;-74
2022/08/23 05:04:20;;;;;;;17.62;13.30;;;;;;;20.23;97.42;100477.49;1787582;79;26654;-74
2022/08/23 05:06:46;;;;;;;20.82;14.05;;;;;;;20.26;97.35;100477.80;1784305;79;25933;-74
2022/08/23 05:09:13;;;;;;;21.77;14.35;;;;;;;20.30;97.58;100478.93;1783640;79;27451;-74
2022/08/23 05:11:40;;;;;;;21.12;14.13;;;;;;;20.35;97.89;100480.90;1787065;79;25676;-73
2022/08/23 05:14:07;;;;;;;23.45;12.98;;;;;;;20.36;97.87;100481.20;1791331;79;25756;-74
2022/08/23 05:16:33;;;;;;;21.73;14.53;;;;;;;20.40;98.02;100485.84;1773418;79;26637;-74
2022/08/23 05:19:02;;;;;;;18.55;13.65;;;;;;;20.40;98.09;100488.57;1774386;79;25731;-74
2022/08/23 05:21:30;;;;;;;20.17;13.85;;;;;;;20.40;98.18;100492.65;1760633;79;28294;-74
2022/08/23 05:23:56;;;;;;;23.62;15.30;;;;;;;20.44;98.42;100499.79;1774031;79;25762;-73
2022/08/23 05:26:24;;;;;;;22.10;14.00;;;;;;;20.47;98.75;100503.34;1742772;80;25699;-73
2022/08/23 05:28:51;;;;;;;25.68;15.28;;;;;;;20.48;98.74;100512.64;1783075;79;25927;-74
2022/08/23 05:31:25;;;;;;;26.82;14.45;;;;;;;20.53;99.01;100510.52;1799919;79;25864;-74
2022/08/23 05:33:53;;;;;;;20.43;14.63;;;;;;;20.55;99.18;100513.81;1770295;79;28267;-74
2022/08/23 05:36:28;;;;;;;21.15;14.78;;;;;;;20.54;99.33;100513.51;1751978;80;25802;-73
2022/08/23 05:38:55;;;;;;;25.15;14.80;;;;;;;20.50;99.43;100513.20;1771394;79;25811;-74
2022/08/23 05:41:23;;;;;;;17.98;14.28;;;;;;;20.45;99.82;100514.49;1775306;79;25823;-73
2022/08/23 05:43:49;;;;;;;27.07;16.32;;;;;;;20.47;100.00;100525.11;1765919;79;25652;-74
2022/08/23 05:46:19;;;;;;;24.35;15.38;;;;;;;20.49;100.00;100520.23;1786711;79;27430;-74
2022/08/23 05:48:50;;;;;;;26.45;14.60;;;;;;;20.53;100.00;100527.65;1769434;79;26457;-73
2022/08/23 05:51:24;;;;;;;17.50;15.10;;;;;;;20.58;100.00;100528.25;1743915;79;25797;-74
2022/08/23 05:53:52;;;;;;;24.65;15.13;;;;;;;20.62;100.00;100525.30;1764283;80;27289;-74
2022/08/23 05:56:25;;;;;;;24.90;16.35;;;;;;;20.64;100.00;100521.25;1777394;79;25723;-74
2022/08/23 05:58:57;;;;;;;28.70;15.28;;;;;;;20.68;100.00;100525.11;1767504;80;28644;-73
2022/08/23 06:01:25;;;;;;;22.32;14.90;;;;;;;20.70;100.00;100524.84;1770491;80;26184;-74
2022/08/23 06:03:53;;;;;;;25.95;15.40;;;;;;;20.72;100.00;100528.96;1772281;79;25790;-73
2022/08/23 06:06:21;;;;;;;19.05;14.38;;;;;;;20.75;100.00;100527.11;1766098;80;25979;-74
2022/08/23 06:08:48;;;;;;;24.00;15.13;;;;;;;20.82;100.00;100536.97;1762236;79;26096;-74
2022/08/23 06:11:22;;;;;;;23.70;15.45;;;;;;;20.90;100.00;100541.95;1767426;79;27482;-74
2022/08/23 06:13:54;;;;;;;22.80;14.10;;;;;;;21.02;100.00;100545.37;1785290;79;25812;-74
2022/08/23 06:16:27;;;;;;;21.75;14.58;;;;;;;21.10;100.00;100547.66;1749087;80;26423;-74
2022/08/23 06:18:56;;;;;;;18.25;13.78;;;;;;;21.15;100.00;100544.44;1749593;80;26483;-74
2022/08/23 06:21:42;;;;;;;23.67;13.83;;;;;;;21.20;100.00;100549.95;1751497;80;26376;-74
2022/08/23 06:24:09;;;;;;;20.12;13.32;;;;;;;21.24;100.00;100546.98;1778714;80;28008;-73
2022/08/23 06:26:41;;;;;;;16.05;12.30;;;;;;;21.25;100.00;100541.84;1780105;79;25913;-74
2022/08/23 06:29:13;;;;;;;26.97;12.82;;;;;;;21.28;100.00;100550.02;1766024;79;25799;-73
2022/08/23 06:31:44;;;;;;;18.25;12.88;;;;;;;21.30;100.00;100543.77;1779719;79;26348;-74
2022/08/23 06:34:26;;;;;;;21.60;13.90;;;;;;;21.34;100.00;100545.72;1748125;81;25301;-74
2022/08/23 06:37:00;;;;;;;21.23;11.95;;;;;;;21.40;100.00;100554.24;1760427;80;27636;-74
2022/08/23 06:39:40;;;;;;;18.12;12.40;;;;;;;21.45;100.00;100555.63;1714998;80;25913;-73
2022/08/23 06:42:20;;;;;;;20.52;12.55;;;;;;;21.47;100.00;100555.36;1763973;80;35356;-73
2022/08/23 06:44:47;;;;;;;21.62;12.90;;;;;;;21.50;100.00;100561.14;1788275;80;26567;-74
2022/08/23 06:47:15;;;;;;;18.27;12.37;;;;;;;21.51;100.00;100560.05;1782134;79;25763;-74
2022/08/23 06:49:42;;;;;;;20.55;12.73;;;;;;;21.53;100.00;100555.16;1758553;80;27439;-74
2022/08/23 06:52:08;;;;;;;16.97;11.43;;;;;;;21.57;100.00;100563.66;1787449;80;25903;-74
2022/08/23 06:54:38;;;;;;;16.75;11.10;;;;;;;21.60;100.00;100560.39;1791162;79;26301;-74
2022/08/23 06:57:23;;;;;;;16.87;12.47;;;;;;;21.62;100.00;100562.31;1781046;80;25838;-74
2022/08/23 07:00:10;;;;;;;18.60;13.43;;;;;;;21.66;100.00;100562.63;1768474;79;26414;-74
2022/08/23 07:02:57;;;;;;;13.62;12.05;;;;;;;21.72;100.00;100569.77;1775138;80;27479;-74
2022/08/23 07:05:41;;;;;;;17.17;12.25;;;;;;;21.78;100.00;100570.91;1743011;80;25742;-74
2022/08/23 07:08:22;;;;;;;19.62;11.43;;;;;;;21.86;100.00;100577.27;1746162;80;25789;-74
2022/08/23 07:10:49;;;;;;;21.50;12.07;;;;;;;21.92;100.00;100574.86;1786183;80;26290;-74
2022/08/23 07:13:16;;;;;;;12.28;11.03;;;;;;;21.97;100.00;100577.63;1717329;80;25888;-74
2022/08/23 07:15:43;;;;;;;18.82;11.80;;;;;;;22.03;100.00;100575.22;1776949;80;27444;-74
2022/08/23 07:18:12;;;;;;;15.28;10.75;;;;;;;22.09;100.00;100569.27;1735703;80;26143;-74
2022/08/23 07:20:38;;;;;;;15.95;10.60;;;;;;;22.16;100.00;100569.30;1780316;79;26600;-74
2022/08/23 07:23:05;;;;;;;14.33;10.00;;;;;;;22.22;100.00;100570.98;1775611;79;25860;-74
2022/08/23 07:25:31;;;;;;;15.80;9.43;;;;;;;22.28;100.00;100574.58;1769980;79;26145;-74
2022/08/23 07:28:00;;;;;;;17.27;10.72;;;;;;;22.35;100.00;100571.05;1775038;79;27639;-74
2022/08/23 07:30:27;;;;;;;15.50;10.72;;;;;;;22.38;100.00;100566.44;1763641;80;25832;-74
2022/08/23 07:32:53;;;;;;;23.70;10.15;;;;;;;22.46;100.00;100570.02;1758815;80;26432;-74
2022/08/23 07:35:24;;;;;;;19.90;9.33;;;;;;;22.54;100.00;100562.69;1738068;80;26565;-74
2022/08/23 07:37:52;;;;;;;20.48;10.60;;;;;;;22.59;100.00;100552.36;1747308;80;25332;-75
2022/08/23 07:40:20;;;;;;;15.38;9.48;;;;;;;22.66;100.00;100560.60;1747410;80;28924;-74
2022/08/23 07:42:47;;;;;;;14.33;9.45;;;;;;;22.71;100.00;100558.44;1759945;80;25813;-74
2022/08/23 07:45:14;;;;;;;18.30;9.65;;;;;;;22.75;99.83;100558.98;1753123;79;25794;-75
2022/08/23 07:47:42;;;;;;;12.98;8.85;;;;;;;22.81;99.76;100554.38;1778401;79;25812;-74
2022/08/23 07:50:09;;;;;;;16.93;9.78;;;;;;;22.87;99.34;100556.86;1756828;80;25836;-74
2022/08/23 07:52:36;;;;;;;16.77;10.23;;;;;;;22.90;98.89;100560.39;1742144;80;28249;-75
2022/08/23 07:55:03;;;;;;;12.70;8.75;;;;;;;22.93;98.98;100560.41;1738360;81;25748;-74
2022/08/23 07:57:43;;;;;;;15.60;9.20;;;;;;;22.96;98.97;100558.52;1737489;81;26424;-74
2022/08/23 08:00:12;;;;;;;17.07;8.98;;;;;;;22.98;98.45;100562.63;1746971;81;26657;-75
2022/08/23 08:02:42;;;;;;;19.07;9.88;;;;;;;22.98;97.99;100561.27;1769029;79;25775;-75
2022/08/23 08:05:10;;;;;;;16.70;8.90;;;;;;;23.00;97.75;100566.45;1768822;80;27667;-75
2022/08/23 08:07:37;;;;;;;18.00;8.75;;;;;;;23.03;98.02;100561.83;1757049;81;25820;-75
2022/08/23 08:10:06;;;;;;;15.35;8.23;;;;;;;23.07;98.26;100556.63;1757111;81;25599;-74
2022/08/23 08:12:33;;;;;;;14.38;9.08;;;;;;;23.11;97.98;100553.09;1763660;81;25903;-75
2022/08/23 08:15:01;;;;;;;15.10;8.93;;;;;;;23.14;97.72;100562.67;1755197;81;25851;-74
2022/08/23 08:17:29;;;;;;;14.75;8.45;;;;;;;23.19;97.26;100561.30;1764660;81;27597;-74
2022/08/23 08:20:04;;;;;;;13.22;8.25;;;;;;;23.25;97.53;100562.41;1698720;81;26285;-75
2022/08/23 08:22:49;;;;;;;14.30;9.55;;;;;;;23.33;97.57;100560.52;1759292;81;25740;-75
2022/08/23 08:25:34;;;;;;;18.37;8.83;;;;;;;23.38;97.75;100560.55;1755818;81;26456;-75
2022/08/23 08:28:02;;;;;;;17.30;8.65;;;;;;;23.41;97.34;100547.71;1772168;80;25811;-75
2022/08/23 08:30:29;;;;;;;17.27;9.08;;;;;;;23.47;97.42;100556.19;1766723;80;28264;-74
2022/08/23 08:32:55;;;;;;;15.53;8.90;;;;;;;23.51;97.52;100557.28;1781926;79;25957;-74
2022/08/23 08:35:23;;;;;;;16.77;8.50;;;;;;;23.57;97.42;100556.19;1739958;81;25753;-74
2022/08/23 08:37:50;;;;;;;15.55;8.75;;;;;;;23.62;97.67;100551.27;1759872;80;26463;-74
2022/08/23 08:40:27;;;;;;;15.05;9.10;;;;;;;23.69;97.69;100562.76;1758164;80;25764;-74
2022/08/23 08:43:26;;;;;;;15.45;8.80;;;;;;;23.72;97.15;100560.28;1773818;79;28110;-75
2022/08/23 08:46:14;;;;;;;20.12;8.13;;;;;;;23.78;96.72;100560.30;1729528;81;25344;-75
2022/08/23 08:48:45;;;;;;;14.15;8.13;;;;;;;23.83;96.01;100563.01;1752292;80;25746;-75
2022/08/23 08:51:39;;;;;;;14.83;9.58;;;;;;;23.85;95.44;100558.91;1783986;79;26395;-75
2022/08/23 08:54:10;;;;;;;13.38;7.78;;;;;;;23.87;95.43;100556.72;1733403;80;25965;-75
2022/08/23 08:56:40;;;;;;;13.78;7.85;;;;;;;23.91;94.42;100560.54;1742190;80;28043;-74
2022/08/23 08:59:22;;;;;;;15.75;8.20;;;;;;;23.94;94.21;100568.20;1740267;80;25787;-74
2022/08/23 09:01:49;;;;;;;11.12;8.10;;;;;;;23.96;93.75;100562.45;1749304;80;26434;-74
2022/08/23 09:04:19;;;;;;;12.65;7.50;;;;;;;23.97;93.77;100562.20;1780129;80;26547;-74
2022/08/23 09:06:58;;;;;;;11.57;7.25;;;;;;;24.04;93.98;100567.36;1780861;79;25707;-74
2022/08/23 09:09:36;;;;;;;15.55;8.33;;;;;;;24.04;93.98;100567.36;1724883;80;27548;-74
2022/08/23 09:12:36;;;;;;;12.90;8.18;;;;;;;24.06;93.80;100564.66;1765011;79;25830;-74
2022/08/23 09:15:27;;;;;;;13.93;8.03;;;;;;;24.11;93.58;100568.77;1753022;80;25984;-75
2022/08/23 09:18:03;;;;;;;18.37;8.65;;;;;;;24.15;93.39;100571.22;1762003;81;26461;-74
2022/08/23 09:20:31;;;;;;;17.75;8.85;;;;;;;24.19;93.27;100570.94;1760938;81;26364;-75
2022/08/23 09:23:20;;;;;;;12.88;8.30;;;;;;;24.26;93.52;100572.84;1773836;79;27447;-75
2022/08/23 09:25:59;;;;;;;15.88;8.25;;;;;;;24.33;93.52;100568.45;1780281;80;25816;-75
2022/08/23 09:28:34;;;;;;;22.90;9.23;;;;;;;24.41;93.31;100564.59;1781141;79;36382;-74
2022/08/23 09:31:01;;;;;;;15.13;8.45;;;;;;;24.50;93.03;100566.20;1780787;80;25783;-74
2022/08/23 09:33:44;;;;;;;15.08;8.45;;;;;;;24.60;92.73;100562.59;1778283;79;25711;-74
2022/08/23 09:36:26;;;;;;;16.42;9.43;;;;;;;24.67;92.65;100558.47;1783448;79;27457;-74
2022/08/23 09:39:02;;;;;;;11.90;8.20;;;;;;;24.78;93.00;100562.84;1777590;80;25731;-74
2022/08/23 09:41:40;;;;;;;14.98;7.42;;;;;;;24.91;92.17;100563.61;1757966;80;25723;-74
2022/08/23 09:44:12;;;;;;;18.25;8.10;;;;;;;24.97;91.65;100556.99;1764061;78;26629;-75
2022/08/23 09:46:42;;;;;;;;;;;;;;;25.03;91.40;100558.59;1751410;80;25756;-74
2022/08/23 09:49:28;;;;;;;12.35;7.55;;;;;;;25.09;90.44;100559.37;1779548;79;27448;-75
2022/08/23 09:52:25;;;;;;;14.60;7.58;;;;;;;25.13;90.91;100557.16;1778028;80;25884;-74
2022/08/23 09:55:07;;;;;;;15.50;7.95;;;;;;;25.18;90.40;100553.03;1775315;79;25755;-74
2022/08/23 09:57:36;;;;;;;13.28;7.75;;;;;;;25.27;90.21;100551.88;1740811;80;25967;-74
2022/08/23 10:00:26;;;;;;;14.85;8.30;;;;;;;25.33;89.47;100552.09;1723466;80;25927;-75
2022/08/23 10:02:56;;;;;;;14.15;7.22;;;;;;;25.45;89.68;100557.27;1785211;79;28240;-73
2022/08/23 10:08:55;;;;;;;14.68;7.80;;;;;;;25.67;89.99;100552.14;1737306;79;25822;-73
2022/08/23 10:11:27;;;;;;;18.70;9.00;;;;;;;25.83;88.22;100555.83;1749536;81;25890;-74
2022/08/23 10:13:55;;;;;;;16.85;8.25;;;;;;;25.91;88.39;100557.14;1758855;80;25759;-73
2022/08/23 10:16:43;;;;;;;13.50;7.22;;;;;;;25.98;87.65;100557.06;1752632;81;28125;-74
2022/08/23 10:19:40;;;;;;;11.65;7.22;;;;;;;26.10;87.96;100556.71;1736035;80;26278;-73
2022/08/23 10:22:18;;;;;;;18.40;6.55;;;;;;;26.21;87.68;100561.55;1752024;80;25746;-74
2022/08/23 10:25:01;;;;;;;18.05;7.95;;;;;;;26.31;86.91;100560.05;1751723;81;26532;-74
2022/08/23 10:30:52;;;;;;;21.10;7.10;;;;;;;26.51;85.43;100555.72;1749511;80;28238;-74
2022/08/23 10:33:32;;;;;;;16.95;7.62;;;;;;;26.67;85.71;100551.66;1747502;80;25964;-74
2022/08/23 10:36:28;;;;;;;18.73;7.22;;;;;;;26.80;85.47;100547.40;1731328;81;34839;-75
2022/08/23 10:39:00;;;;;;;17.25;6.83;;;;;;;26.91;85.35;100551.10;1737170;80;25836;-75
2022/08/23 10:41:50;;;;;;;17.92;7.80;;;;;;;27.04;84.98;100547.62;1738953;80;25782;-75
2022/08/23 10:44:32;;;;;;;16.97;8.20;;;;;;;27.14;84.78;100547.47;1750572;81;27426;-74
2022/08/23 10:47:20;;;;;;;16.05;6.83;;;;;;;27.15;83.57;100546.38;1743654;81;26367;-74
2022/08/23 10:49:51;;;;;;;16.82;6.83;;;;;;;27.15;83.27;100548.30;1750010;81;25816;-75
2022/08/23 10:52:35;;;;;;;19.70;6.95;;;;;;;27.13;82.60;100553.28;1760220;80;26341;-74
2022/08/23 10:55:16;;;;;;;23.67;8.80;;;;;;;27.20;83.25;100552.36;1736991;81;25777;-75
2022/08/23 10:57:39;;;;;;;19.12;7.67;;;;;;;27.24;82.17;100545.97;1738601;81;27601;-74
2022/08/23 11:00:12;;;;;;;21.65;7.08;;;;;;;27.29;82.41;100546.42;1742707;80;26382;-74
2022/08/23 11:03:04;;;;;;;23.83;7.92;;;;;;;27.33;82.26;100548.86;1753998;81;26385;-75
2022/08/23 11:05:37;;;;;;;23.65;7.22;;;;;;;27.35;82.45;100544.70;1756865;81;25903;-73
2022/08/23 11:08:13;;;;;;;24.77;7.75;;;;;;;27.39;82.22;100544.94;1736675;80;25920;-72
2022/08/23 11:10:47;;;;;;;21.75;6.72;;;;;;;27.43;81.25;100544.05;1755185;80;26948;-73
2022/08/23 11:13:23;;;;;;;19.98;7.60;;;;;;;27.48;80.65;100544.50;1738708;81;25866;-73
2022/08/23 11:16:10;;;;;;;20.40;6.35;;;;;;;27.54;80.29;100543.88;1758080;80;25843;-73
2022/08/23 11:18:47;;;;;;;20.30;8.50;;;;;;;27.59;80.22;100535.55;1729304;81;25788;-72
2022/08/23 11:21:32;;;;;;;18.75;7.10;;;;;;;27.59;79.81;100534.97;1745540;81;25719;-72
2022/08/23 11:24:06;;;;;;;19.77;7.08;;;;;;;27.53;79.60;100538.92;1735362;81;27470;-73
2022/08/23 11:26:40;;;;;;;16.60;6.20;;;;;;;27.51;80.04;100534.28;1717369;81;25935;-72
2022/08/23 11:29:26;;;;;;;22.17;7.05;;;;;;;27.47;79.80;100541.50;1712825;81;26451;-72
2022/08/23 11:32:18;;;;;;;26.45;6.85;;;;;;;27.39;79.17;100536.11;1720742;81;26569;-73
2022/08/23 11:35:09;;;;;;;19.25;8.48;;;;;;;27.33;79.57;100542.78;1732299;82;25768;-73
2022/08/23 11:37:55;;;;;;;25.08;7.17;;;;;;;27.29;79.81;100538.99;1724696;82;27628;-73
2022/08/23 11:40:54;;;;;;;21.10;7.42;;;;;;;27.26;79.57;100534.66;1808227;78;25815;-73
2022/08/23 11:43:35;;;;;;;19.87;7.50;;;;;;;27.25;79.89;100538.51;1766793;80;25787;-74
2022/08/23 11:46:17;;;;;;;18.85;6.83;;;;;;;27.26;79.94;100538.78;1766274;80;25765;-73
2022/08/23 11:48:49;;;;;;;20.85;8.15;;;;;;;27.27;80.74;100533.53;1766725;80;26409;-74
2022/08/23 11:51:27;;;;;;;23.83;7.17;;;;;;;27.38;80.82;100535.86;1777184;80;27444;-74
2022/08/23 11:54:17;;;;;;;17.92;7.20;;;;;;;27.46;80.69;100532.42;1712750;82;25373;-74